sensor_id;sensor_type;location;lat;lon;timestamp;pressure;altitude;pressure_sealevel;temperature;humidity
29461;BME280;16428;47.836;35.106;2023-04-08T00:01:45;101435.25;;;11.04;100.00
29461;BME280;16428;47.836;35.106;2023-04-08T00:04:13;101432.88;;;11.01;100.00
29461;BME280;16428;47.836;35.106;2023-04-08T00:06:42;101432.88;;;10.93;100.00
29461;BME280;16428;47.836;35.106;2023-04-08T00:09:10;101428.69;;;10.99;100.00
29461;BME280;16428;47.836;35.106;2023-04-08T00:11:38;101423.44;;;10.89;100.00
29461;BME280;16428;47.836;35.106;2023-04-08T00:14:06;101425.13;;;10.90;100.00
29461;BME280;16428;47.836;35.106;2023-04-08T00:16:36;101432.53;;;10.96;100.00
29461;BME280;16428;47.836;35.106;2023-04-08T00:19:03;101419.09;;;10.96;100.00
29461;BME280;16428;47.836;35.106;2023-04-08T00:21:33;101428.50;;;10.92;100.00
29461;BME280;16428;47.836;35.106;2023-04-08T00:24:00;101423.97;;;10.92;100.00
29461;BME280;16428;47.836;35.106;2023-04-08T00:26:28;101429.53;;;10.99;100.00
29461;BME280;16428;47.836;35.106;2023-04-08T00:28:55;101420.75;;;10.89;100.00
29461;BME280;16428;47.836;35.106;2023-04-08T00:31:23;101424.75;;;10.85;100.00
29461;BME280;16428;47.836;35.106;2023-04-08T00:33:51;101417.88;;;10.82;100.00
29461;BME280;16428;47.836;35.106;2023-04-08T00:36:18;101429.09;;;10.78;100.00
29461;BME280;16428;47.836;35.106;2023-04-08T00:38:46;101424.56;;;10.78;100.00
29461;BME280;16428;47.836;35.106;2023-04-08T00:41:14;101424.03;;;10.75;100.00
29461;BME280;16428;47.836;35.106;2023-04-08T00:43:42;101421.31;;;10.67;100.00
29461;BME280;16428;47.836;35.106;2023-04-08T00:46:10;101414.97;;;10.68;100.00
29461;BME280;16428;47.836;35.106;2023-04-08T00:48:38;101420.81;;;10.71;100.00
29461;BME280;16428;47.836;35.106;2023-04-08T00:51:07;101419.97;;;10.71;100.00
29461;BME280;16428;47.836;35.106;2023-04-08T00:53:53;101422.03;;;10.77;100.00
29461;BME280;16428;47.836;35.106;2023-04-08T00:56:22;101424.34;;;10.64;100.00
29461;BME280;16428;47.836;35.106;2023-04-08T00:58:50;101428.22;;;10.69;100.00
29461;BME280;16428;47.836;35.106;2023-04-08T01:01:25;101425.34;;;10.71;100.00
29461;BME280;16428;47.836;35.106;2023-04-08T01:04:05;101427.78;;;10.82;100.00
29461;BME280;16428;47.836;35.106;2023-04-08T01:09:09;101428.88;;;10.71;100.00
29461;BME280;16428;47.836;35.106;2023-04-08T01:11:42;101427.38;;;10.69;100.00
29461;BME280;16428;47.836;35.106;2023-04-08T01:14:11;101432.72;;;10.61;100.00
29461;BME280;16428;47.836;35.106;2023-04-08T01:16:44;101434.72;;;10.58;100.00
29461;BME280;16428;47.836;35.106;2023-04-08T01:19:28;101431.56;;;10.63;100.00
29461;BME280;16428;47.836;35.106;2023-04-08T01:22:04;101431.38;;;10.65;100.00
29461;BME280;16428;47.836;35.106;2023-04-08T01:24:39;101431.72;;;10.62;100.00
29461;BME280;16428;47.836;35.106;2023-04-08T01:27:09;101437.06;;;10.62;100.00
29461;BME280;16428;47.836;35.106;2023-04-08T01:29:38;101428.56;;;10.66;100.00
29461;BME280;16428;47.836;35.106;2023-04-08T01:32:07;101429.22;;;10.68;100.00
29461;BME280;16428;47.836;35.106;2023-04-08T01:34:37;101433.00;;;10.57;100.00
29461;BME280;16428;47.836;35.106;2023-04-08T01:37:06;101435.72;;;10.57;100.00
29461;BME280;16428;47.836;35.106;2023-04-08T01:39:37;101441.59;;;10.61;100.00
29461;BME280;16428;47.836;35.106;2023-04-08T01:42:04;101442.13;;;10.65;100.00
29461;BME280;16428;47.836;35.106;2023-04-08T01:44:34;101444.75;;;10.56;100.00
29461;BME280;16428;47.836;35.106;2023-04-08T01:47:03;101447.81;;;10.62;100.00
29461;BME280;16428;47.836;35.106;2023-04-08T01:49:31;101449.19;;;10.66;100.00
29461;BME280;16428;47.836;35.106;2023-04-08T01:51:59;101448.53;;;10.72;100.00
29461;BME280;16428;47.836;35.106;2023-04-08T01:54:28;101448.19;;;10.67;100.00
29461;BME280;16428;47.836;35.106;2023-04-08T01:56:57;101447.44;;;10.56;100.00
29461;BME280;16428;47.836;35.106;2023-04-08T01:59:29;101446.56;;;10.48;100.00
29461;BME280;16428;47.836;35.106;2023-04-08T02:01:59;101445.72;;;10.47;100.00
29461;BME280;16428;47.836;35.106;2023-04-08T02:04:28;101442.75;;;10.58;100.00
29461;BME280;16428;47.836;35.106;2023-04-08T02:06:57;101444.50;;;10.68;100.00
29461;BME280;16428;47.836;35.106;2023-04-08T02:09:27;101430.00;;;10.61;100.00
29461;BME280;16428;47.836;35.106;2023-04-08T02:11:55;101434.91;;;10.65;100.00
29461;BME280;16428;47.836;35.106;2023-04-08T02:14:24;101427.50;;;10.59;100.00
29461;BME280;16428;47.836;35.106;2023-04-08T02:16:57;101434.75;;;10.67;100.00
29461;BME280;16428;47.836;35.106;2023-04-08T02:19:30;101437.06;;;10.62;100.00
29461;BME280;16428;47.836;35.106;2023-04-08T02:22:04;101435.22;;;10.54;100.00
29461;BME280;16428;47.836;35.106;2023-04-08T02:24:37;101442.66;;;10.68;100.00
29461;BME280;16428;47.836;35.106;2023-04-08T02:27:07;101441.31;;;10.72;100.00
29461;BME280;16428;47.836;35.106;2023-04-08T02:29:39;101447.03;;;10.69;100.00
29461;BME280;16428;47.836;35.106;2023-04-08T02:32:09;101442.53;;;10.78;100.00
29461;BME280;16428;47.836;35.106;2023-04-08T02:34:39;101445.22;;;10.78;100.00
29461;BME280;16428;47.836;35.106;2023-04-08T02:37:08;101440.31;;;10.73;100.00
29461;BME280;16428;47.836;35.106;2023-04-08T02:39:36;101436.09;;;10.71;100.00
29461;BME280;16428;47.836;35.106;2023-04-08T02:42:03;101442.13;;;10.65;100.00
29461;BME280;16428;47.836;35.106;2023-04-08T02:44:32;101437.91;;;10.62;100.00
29461;BME280;16428;47.836;35.106;2023-04-08T02:46:59;101437.06;;;10.62;100.00
29461;BME280;16428;47.836;35.106;2023-04-08T02:49:27;101448.34;;;10.65;100.00
29461;BME280;16428;47.836;35.106;2023-04-08T02:51:54;101453.16;;;10.53;100.00
29461;BME280;16428;47.836;35.106;2023-04-08T02:54:23;101439.53;;;10.21;100.00
29461;BME280;16428;47.836;35.106;2023-04-08T02:56:51;101458.78;;;10.42;100.00
29461;BME280;16428;47.836;35.106;2023-04-08T02:59:18;101454.00;;;10.54;100.00
29461;BME280;16428;47.836;35.106;2023-04-08T03:01:46;101447.44;;;10.56;100.00
29461;BME280;16428;47.836;35.106;2023-04-08T03:04:13;101450.47;;;10.53;100.00
29461;BME280;16428;47.836;35.106;2023-04-08T03:06:41;101458.16;;;10.48;100.00
29461;BME280;16428;47.836;35.106;2023-04-08T03:09:10;101449.41;;;10.46;100.00
29461;BME280;16428;47.836;35.106;2023-04-08T03:11:39;101455.84;;;10.53;100.00
29461;BME280;16428;47.836;35.106;2023-04-08T03:14:06;101456.16;;;10.50;100.00
29461;BME280;16428;47.836;35.106;2023-04-08T03:16:35;101455.09;;;10.43;100.00
29461;BME280;16428;47.836;35.106;2023-04-08T03:19:04;101460.47;;;10.43;100.00
29461;BME280;16428;47.836;35.106;2023-04-08T03:21:31;101451.44;;;10.27;100.00
29461;BME280;16428;47.836;35.106;2023-04-08T03:23:59;101454.28;;;10.25;100.00
29461;BME280;16428;47.836;35.106;2023-04-08T03:26:27;101454.97;;;10.27;100.00
29461;BME280;16428;47.836;35.106;2023-04-08T03:28:56;101459.19;;;10.30;100.00
29461;BME280;16428;47.836;35.106;2023-04-08T03:31:24;101460.19;;;10.29;100.00
29461;BME280;16428;47.836;35.106;2023-04-08T03:33:52;101461.13;;;10.37;100.00
29461;BME280;16428;47.836;35.106;2023-04-08T03:36:20;101467.34;;;10.38;100.00
29461;BME280;16428;47.836;35.106;2023-04-08T03:38:48;101463.19;;;10.26;100.00
29461;BME280;16428;47.836;35.106;2023-04-08T03:41:16;101461.16;;;10.19;100.00
29461;BME280;16428;47.836;35.106;2023-04-08T03:43:45;101467.38;;;10.20;100.00
29461;BME280;16428;47.836;35.106;2023-04-08T03:46:12;101468.94;;;10.13;100.00
29461;BME280;16428;47.836;35.106;2023-04-08T03:48:41;101473.84;;;10.35;100.00
29461;BME280;16428;47.836;35.106;2023-04-08T03:51:09;101470.47;;;10.33;100.00
29461;BME280;16428;47.836;35.106;2023-04-08T03:53:40;101466.50;;;10.37;100.00
29461;BME280;16428;47.836;35.106;2023-04-08T03:56:08;101470.38;;;10.43;100.00
29461;BME280;16428;47.836;35.106;2023-04-08T03:58:35;101477.84;;;10.57;100.00
29461;BME280;16428;47.836;35.106;2023-04-08T04:01:03;101476.06;;;10.66;100.00
29461;BME280;16428;47.836;35.106;2023-04-08T04:03:32;101487.13;;;10.63;100.00
29461;BME280;16428;47.836;35.106;2023-04-08T04:05:59;101480.94;;;10.70;100.00
29461;BME280;16428;47.836;35.106;2023-04-08T04:08:28;101477.47;;;10.78;100.00
29461;BME280;16428;47.836;35.106;2023-04-08T04:10:57;101491.53;;;10.72;100.00
29461;BME280;16428;47.836;35.106;2023-04-08T04:13:25;101488.38;;;10.76;100.00
29461;BME280;16428;47.836;35.106;2023-04-08T04:15:53;101489.59;;;10.82;100.00
29461;BME280;16428;47.836;35.106;2023-04-08T04:18:21;101492.28;;;10.82;100.00
29461;BME280;16428;47.836;35.106;2023-04-08T04:20:49;101484.38;;;10.80;100.00
29461;BME280;16428;47.836;35.106;2023-04-08T04:23:18;101477.72;;;10.92;100.00
29461;BME280;16428;47.836;35.106;2023-04-08T04:25:46;101480.97;;;11.04;100.00
29461;BME280;16428;47.836;35.106;2023-04-08T04:28:15;101484.00;;;11.09;100.00
29461;BME280;16428;47.836;35.106;2023-04-08T04:30:45;101494.09;;;11.15;100.00
29461;BME280;16428;47.836;35.106;2023-04-08T04:33:15;101490.75;;;11.13;100.00
29461;BME280;16428;47.836;35.106;2023-04-08T04:35:43;101491.72;;;11.04;100.00
29461;BME280;16428;47.836;35.106;2023-04-08T04:38:11;101503.84;;;11.16;100.00
29461;BME280;16428;47.836;35.106;2023-04-08T04:40:40;101511.50;;;11.29;100.00
29461;BME280;16428;47.836;35.106;2023-04-08T04:43:08;101508.31;;;11.34;100.00
29461;BME280;16428;47.836;35.106;2023-04-08T04:45:36;101522.13;;;11.39;100.00
29461;BME280;16428;47.836;35.106;2023-04-08T04:48:04;101521.47;;;11.45;100.00
29461;BME280;16428;47.836;35.106;2023-04-08T04:50:32;101531.25;;;11.54;100.00
29461;BME280;16428;47.836;35.106;2023-04-08T04:53:02;101534.97;;;11.61;100.00
29461;BME280;16428;47.836;35.106;2023-04-08T04:55:30;101531.25;;;11.54;100.00
29461;BME280;16428;47.836;35.106;2023-04-08T04:57:58;101529.38;;;11.46;100.00
29461;BME280;16428;47.836;35.106;2023-04-08T05:00:26;101528.88;;;11.43;100.00
29461;BME280;16428;47.836;35.106;2023-04-08T05:02:54;101528.56;;;11.62;100.00
29461;BME280;16428;47.836;35.106;2023-04-08T05:05:21;101525.72;;;11.63;100.00
29461;BME280;16428;47.836;35.106;2023-04-08T05:07:50;101516.97;;;11.61;100.00
29461;BME280;16428;47.836;35.106;2023-04-08T05:10:18;101526.34;;;11.91;100.00
29461;BME280;16428;47.836;35.106;2023-04-08T05:12:46;101532.91;;;11.89;100.00
29461;BME280;16428;47.836;35.106;2023-04-08T05:15:14;101525.34;;;12.01;100.00
29461;BME280;16428;47.836;35.106;2023-04-08T05:17:42;101520.13;;;12.15;100.00
29461;BME280;16428;47.836;35.106;2023-04-08T05:20:10;101525.00;;;12.28;100.00
29461;BME280;16428;47.836;35.106;2023-04-08T05:22:42;101526.69;;;12.29;100.00
29461;BME280;16428;47.836;35.106;2023-04-08T05:25:11;101527.72;;;12.36;100.00
29461;BME280;16428;47.836;35.106;2023-04-08T05:27:39;101536.47;;;12.22;100.00
29461;BME280;16428;47.836;35.106;2023-04-08T05:30:08;101541.84;;;12.30;100.00
29461;BME280;16428;47.836;35.106;2023-04-08T05:32:37;101541.19;;;12.36;100.00
29461;BME280;16428;47.836;35.106;2023-04-08T05:35:05;101541.19;;;12.52;100.00
29461;BME280;16428;47.836;35.106;2023-04-08T05:37:33;101549.59;;;12.65;100.00
29461;BME280;16428;47.836;35.106;2023-04-08T05:40:00;101552.28;;;12.65;100.00
29461;BME280;16428;47.836;35.106;2023-04-08T05:42:28;101551.59;;;12.72;100.00
29461;BME280;16428;47.836;35.106;2023-04-08T05:44:56;101552.25;;;12.90;100.00
29461;BME280;16428;47.836;35.106;2023-04-08T05:47:24;101545.19;;;12.73;100.00
29461;BME280;16428;47.836;35.106;2023-04-08T05:49:52;101553.59;;;12.94;100.00
29461;BME280;16428;47.836;35.106;2023-04-08T05:52:19;101549.53;;;12.90;100.00
29461;BME280;16428;47.836;35.106;2023-04-08T05:54:47;101550.56;;;12.89;100.00
29461;BME280;16428;47.836;35.106;2023-04-08T05:57:16;101556.25;;;13.10;100.00
29461;BME280;16428;47.836;35.106;2023-04-08T05:59:44;101557.56;;;13.14;100.00
29461;BME280;16428;47.836;35.106;2023-04-08T06:02:15;101555.22;;;13.27;100.00
29461;BME280;16428;47.836;35.106;2023-04-08T06:04:43;101558.56;;;13.29;100.00
29461;BME280;16428;47.836;35.106;2023-04-08T06:07:10;101556.56;;;13.15;100.00
29461;BME280;16428;47.836;35.106;2023-04-08T06:09:38;101569.00;;;13.32;100.00
29461;BME280;16428;47.836;35.106;2023-04-08T06:12:05;101565.44;;;13.40;100.00
29461;BME280;16428;47.836;35.106;2023-04-08T06:14:34;101569.28;;;13.46;100.00
29461;BME280;16428;47.836;35.106;2023-04-08T06:17:01;101559.66;;;13.51;100.00
29461;BME280;16428;47.836;35.106;2023-04-08T06:19:30;101574.34;;;13.49;100.00
29461;BME280;16428;47.836;35.106;2023-04-08T06:21:57;101569.72;;;13.65;100.00
29461;BME280;16428;47.836;35.106;2023-04-08T06:24:30;101566.50;;;13.62;100.00
29461;BME280;16428;47.836;35.106;2023-04-08T06:26:57;101566.84;;;13.67;100.00
29461;BME280;16428;47.836;35.106;2023-04-08T06:29:25;101576.19;;;13.87;100.00
29461;BME280;16428;47.836;35.106;2023-04-08T06:31:52;101571.41;;;13.66;100.00
29461;BME280;16428;47.836;35.106;2023-04-08T06:34:20;101574.84;;;13.83;100.00
29461;BME280;16428;47.836;35.106;2023-04-08T06:36:48;101574.03;;;14.05;100.00
29461;BME280;16428;47.836;35.106;2023-04-08T06:39:16;101580.09;;;14.07;100.00
29461;BME280;16428;47.836;35.106;2023-04-08T06:41:45;101578.97;;;14.25;100.00
29461;BME280;16428;47.836;35.106;2023-04-08T06:44:13;101575.25;;;14.26;100.00
29461;BME280;16428;47.836;35.106;2023-04-08T06:46:40;101567.75;;;14.36;100.00
29461;BME280;16428;47.836;35.106;2023-04-08T06:49:08;101574.81;;;14.37;100.00
29461;BME280;16428;47.836;35.106;2023-04-08T06:51:35;101570.91;;;14.39;100.00
29461;BME280;16428;47.836;35.106;2023-04-08T06:54:03;101576.19;;;14.41;100.00
29461;BME280;16428;47.836;35.106;2023-04-08T06:56:30;101566.25;;;14.33;100.00
29461;BME280;16428;47.836;35.106;2023-04-08T06:58:58;101580.53;;;14.50;100.00
29461;BME280;16428;47.836;35.106;2023-04-08T07:01:25;101577.22;;;14.77;100.00
29461;BME280;16428;47.836;35.106;2023-04-08T07:03:53;101572.09;;;14.83;100.00
29461;BME280;16428;47.836;35.106;2023-04-08T07:06:21;101572.41;;;15.02;100.00
29461;BME280;16428;47.836;35.106;2023-04-08T07:08:48;101574.94;;;15.04;100.00
29461;BME280;16428;47.836;35.106;2023-04-08T07:11:20;101580.31;;;14.89;99.13
29461;BME280;16428;47.836;35.106;2023-04-08T07:13:48;101582.47;;;14.94;100.00
29461;BME280;16428;47.836;35.106;2023-04-08T07:16:22;101589.56;;;14.95;99.11
29461;BME280;16428;47.836;35.106;2023-04-08T07:18:50;101596.22;;;15.22;98.80
29461;BME280;16428;47.836;35.106;2023-04-08T07:21:19;101590.63;;;15.38;100.00
29461;BME280;16428;47.836;35.106;2023-04-08T07:23:50;101587.56;;;15.56;100.00
29461;BME280;16428;47.836;35.106;2023-04-08T07:26:17;101592.50;;;15.67;100.00
29461;BME280;16428;47.836;35.106;2023-04-08T07:28:47;101603.41;;;15.88;97.86
29461;BME280;16428;47.836;35.106;2023-04-08T07:31:16;101604.69;;;15.92;97.75
29461;BME280;16428;47.836;35.106;2023-04-08T07:33:44;101614.69;;;15.92;96.54
29461;BME280;16428;47.836;35.106;2023-04-08T07:36:16;101612.72;;;16.00;95.02
29461;BME280;16428;47.836;35.106;2023-04-08T07:38:45;101615.44;;;16.00;94.31
29461;BME280;16428;47.836;35.106;2023-04-08T07:41:17;101608.97;;;16.01;95.17
29461;BME280;16428;47.836;35.106;2023-04-08T07:43:45;101605.63;;;15.99;96.85
29461;BME280;16428;47.836;35.106;2023-04-08T07:46:12;101613.47;;;15.94;96.15
29461;BME280;16428;47.836;35.106;2023-04-08T07:48:41;101610.56;;;16.32;95.81
29461;BME280;16428;47.836;35.106;2023-04-08T07:51:09;101605.91;;;16.26;97.15
29461;BME280;16428;47.836;35.106;2023-04-08T07:53:38;101609.06;;;16.29;97.16
29461;BME280;16428;47.836;35.106;2023-04-08T07:56:11;101598.41;;;16.28;99.39
29461;BME280;16428;47.836;35.106;2023-04-08T07:58:39;101603.47;;;16.73;96.56
29461;BME280;16428;47.836;35.106;2023-04-08T08:01:18;101609.66;;;16.88;95.66
29461;BME280;16428;47.836;35.106;2023-04-08T08:03:48;101612.91;;;16.77;94.00
29461;BME280;16428;47.836;35.106;2023-04-08T08:06:16;101604.03;;;16.90;93.95
29461;BME280;16428;47.836;35.106;2023-04-08T08:08:44;101613.28;;;16.74;93.61
29461;BME280;16428;47.836;35.106;2023-04-08T08:11:12;101613.28;;;16.96;93.16
29461;BME280;16428;47.836;35.106;2023-04-08T08:13:41;101613.59;;;16.86;92.32
29461;BME280;16428;47.836;35.106;2023-04-08T08:16:10;101615.06;;;17.16;91.37
29461;BME280;16428;47.836;35.106;2023-04-08T08:18:39;101616.34;;;17.20;91.39
29461;BME280;16428;47.836;35.106;2023-04-08T08:21:14;101618.06;;;17.63;90.86
29461;BME280;16428;47.836;35.106;2023-04-08T08:23:42;101618.66;;;17.58;88.52
29461;BME280;16428;47.836;35.106;2023-04-08T08:26:09;101610.81;;;17.35;89.72
29461;BME280;16428;47.836;35.106;2023-04-08T08:28:39;101613.91;;;17.26;86.83
29461;BME280;16428;47.836;35.106;2023-04-08T08:31:07;101614.97;;;17.66;85.92
29461;BME280;16428;47.836;35.106;2023-04-08T08:33:35;101621.72;;;17.76;85.27
29461;BME280;16428;47.836;35.106;2023-04-08T08:36:03;101619.47;;;17.93;87.91
29461;BME280;16428;47.836;35.106;2023-04-08T08:38:32;101615.22;;;17.71;89.46
29461;BME280;16428;47.836;35.106;2023-04-08T08:41:00;101612.69;;;18.23;88.72
29461;BME280;16428;47.836;35.106;2023-04-08T08:43:30;101613.53;;;18.37;92.00
29461;BME280;16428;47.836;35.106;2023-04-08T08:46:00;101612.78;;;17.89;89.47
29461;BME280;16428;47.836;35.106;2023-04-08T08:48:29;101605.94;;;18.00;87.42
29461;BME280;16428;47.836;35.106;2023-04-08T08:50:57;101609.31;;;18.15;88.10
29461;BME280;16428;47.836;35.106;2023-04-08T08:53:29;101617.72;;;18.26;87.54
29461;BME280;16428;47.836;35.106;2023-04-08T08:56:01;101615.03;;;18.46;86.58
29461;BME280;16428;47.836;35.106;2023-04-08T08:58:46;101610.41;;;18.27;87.78
29461;BME280;16428;47.836;35.106;2023-04-08T09:01:35;101613.88;;;18.01;88.19
29461;BME280;16428;47.836;35.106;2023-04-08T09:04:18;101613.53;;;18.17;90.66
29461;BME280;16428;47.836;35.106;2023-04-08T09:06:49;101610.53;;;17.99;88.76
29461;BME280;16428;47.836;35.106;2023-04-08T09:09:17;101617.47;;;18.15;87.88
29461;BME280;16428;47.836;35.106;2023-04-08T09:11:46;101611.13;;;17.95;86.79
29461;BME280;16428;47.836;35.106;2023-04-08T09:14:17;101610.44;;;17.79;89.43
29461;BME280;16428;47.836;35.106;2023-04-08T09:16:45;101612.72;;;18.50;90.76
29461;BME280;16428;47.836;35.106;2023-04-08T09:19:13;101617.59;;;18.68;85.86
29461;BME280;16428;47.836;35.106;2023-04-08T09:21:41;101613.16;;;19.26;85.58
29461;BME280;16428;47.836;35.106;2023-04-08T09:24:27;101607.69;;;19.52;83.03
29461;BME280;16428;47.836;35.106;2023-04-08T09:26:56;101616.69;;;20.04;83.24
29461;BME280;16428;47.836;35.106;2023-04-08T09:29:25;101615.75;;;20.23;81.88
29461;BME280;16428;47.836;35.106;2023-04-08T09:31:59;101612.72;;;20.45;79.81
29461;BME280;16428;47.836;35.106;2023-04-08T09:34:29;101605.19;;;20.33;77.91
29461;BME280;16428;47.836;35.106;2023-04-08T09:37:01;101606.22;;;20.70;76.72
29461;BME280;16428;47.836;35.106;2023-04-08T09:39:28;101610.84;;;20.70;75.56
29461;BME280;16428;47.836;35.106;2023-04-08T09:41:57;101599.09;;;20.94;79.66
29461;BME280;16428;47.836;35.106;2023-04-08T09:44:28;101601.78;;;21.44;77.56
29461;BME280;16428;47.836;35.106;2023-04-08T09:47:15;101602.97;;;21.30;75.71
29461;BME280;16428;47.836;35.106;2023-04-08T09:49:50;101602.38;;;21.46;75.62
29461;BME280;16428;47.836;35.106;2023-04-08T09:52:43;101607.53;;;21.54;67.73
29461;BME280;16428;47.836;35.106;2023-04-08T09:55:16;101607.69;;;21.59;69.33
29461;BME280;16428;47.836;35.106;2023-04-08T09:58:14;101600.34;;;21.60;67.66
29461;BME280;16428;47.836;35.106;2023-04-08T10:00:48;101605.25;;;21.88;69.01
29461;BME280;16428;47.836;35.106;2023-04-08T10:03:28;101608.19;;;22.23;62.35
29461;BME280;16428;47.836;35.106;2023-04-08T10:06:00;101607.63;;;21.84;62.58
29461;BME280;16428;47.836;35.106;2023-04-08T10:08:30;101601.94;;;21.67;61.78
29461;BME280;16428;47.836;35.106;2023-04-08T10:10:59;101610.81;;;22.29;60.12
29461;BME280;16428;47.836;35.106;2023-04-08T10:13:34;101607.59;;;22.02;62.66
29461;BME280;16428;47.836;35.106;2023-04-08T10:16:19;101603.13;;;22.08;60.60
29461;BME280;16428;47.836;35.106;2023-04-08T10:18:50;101605.25;;;22.48;56.86
29461;BME280;16428;47.836;35.106;2023-04-08T10:21:37;101605.53;;;22.16;55.99
29461;BME280;16428;47.836;35.106;2023-04-08T10:24:10;101596.47;;;22.45;61.02
29461;BME280;16428;47.836;35.106;2023-04-08T10:26:42;101600.03;;;22.46;60.30
29461;BME280;16428;47.836;35.106;2023-04-08T10:31:46;101595.03;;;22.96;54.40
29461;BME280;16428;47.836;35.106;2023-04-08T10:34:18;101598.25;;;22.52;58.24
29461;BME280;16428;47.836;35.106;2023-04-08T10:36:46;101601.13;;;22.45;62.65
29461;BME280;16428;47.836;35.106;2023-04-08T10:39:17;101592.84;;;22.75;57.74
29461;BME280;16428;47.836;35.106;2023-04-08T10:41:47;101592.59;;;23.58;54.97
29461;BME280;16428;47.836;35.106;2023-04-08T10:44:16;101588.44;;;23.67;54.45
29461;BME280;16428;47.836;35.106;2023-04-08T10:46:45;101584.22;;;23.76;53.21
29461;BME280;16428;47.836;35.106;2023-04-08T10:49:14;101589.59;;;23.83;52.21
29461;BME280;16428;47.836;35.106;2023-04-08T10:51:47;101591.31;;;23.49;53.23
29461;BME280;16428;47.836;35.106;2023-04-08T10:54:17;101592.50;;;22.95;54.70
29461;BME280;16428;47.836;35.106;2023-04-08T10:56:49;101592.69;;;22.58;54.95
29461;BME280;16428;47.836;35.106;2023-04-08T10:59:30;101587.56;;;22.20;57.38
29461;BME280;16428;47.836;35.106;2023-04-08T11:01:59;101579.91;;;21.44;61.90
29461;BME280;16428;47.836;35.106;2023-04-08T11:04:28;101582.56;;;21.69;57.37
29461;BME280;16428;47.836;35.106;2023-04-08T11:06:56;101580.75;;;21.45;58.64
29461;BME280;16428;47.836;35.106;2023-04-08T11:09:25;101589.56;;;20.79;61.45
29461;BME280;16428;47.836;35.106;2023-04-08T11:11:52;101587.78;;;20.66;66.58
29461;BME280;16428;47.836;35.106;2023-04-08T11:14:24;101591.13;;;20.68;64.57
29461;BME280;16428;47.836;35.106;2023-04-08T11:16:52;101604.78;;;20.68;65.62
29461;BME280;16428;47.836;35.106;2023-04-08T11:19:19;101596.34;;;20.45;60.95
29461;BME280;16428;47.836;35.106;2023-04-08T11:21:47;101606.34;;;19.75;64.71
29461;BME280;16428;47.836;35.106;2023-04-08T11:24:14;101595.56;;;19.35;62.52
29461;BME280;16428;47.836;35.106;2023-04-08T11:26:46;101598.13;;;18.84;72.57
29461;BME280;16428;47.836;35.106;2023-04-08T11:29:15;101593.81;;;18.02;83.24
29461;BME280;16428;47.836;35.106;2023-04-08T11:31:43;101574.28;;;17.79;81.46
29461;BME280;16428;47.836;35.106;2023-04-08T11:34:11;101565.09;;;17.45;88.77
29461;BME280;16428;47.836;35.106;2023-04-08T11:36:39;101573.88;;;17.41;82.21
29461;BME280;16428;47.836;35.106;2023-04-08T11:39:08;101559.16;;;17.22;85.01
29461;BME280;16428;47.836;35.106;2023-04-08T11:41:39;101559.16;;;17.22;96.19
29461;BME280;16428;47.836;35.106;2023-04-08T11:44:07;101573.16;;;16.98;95.38
29461;BME280;16428;47.836;35.106;2023-04-08T11:46:36;101564.50;;;17.09;100.00
29461;BME280;16428;47.836;35.106;2023-04-08T11:49:06;101554.50;;;17.16;99.47
29461;BME280;16428;47.836;35.106;2023-04-08T11:51:56;101558.22;;;17.08;100.00
29461;BME280;16428;47.836;35.106;2023-04-08T11:54:31;101562.81;;;17.08;93.45
29461;BME280;16428;47.836;35.106;2023-04-08T11:56:59;101561.22;;;17.20;100.00
29461;BME280;16428;47.836;35.106;2023-04-08T11:59:27;101574.28;;;17.44;100.00
29461;BME280;16428;47.836;35.106;2023-04-08T12:01:56;101580.03;;;17.63;100.00
29461;BME280;16428;47.836;35.106;2023-04-08T12:04:23;101573.91;;;17.47;100.00
29461;BME280;16428;47.836;35.106;2023-04-08T12:06:52;101564.66;;;17.42;100.00
29461;BME280;16428;47.836;35.106;2023-04-08T12:09:21;101565.78;;;18.08;90.28
29461;BME280;16428;47.836;35.106;2023-04-08T12:11:49;101572.09;;;18.35;82.71
29461;BME280;16428;47.836;35.106;2023-04-08T12:14:17;101563.81;;;18.63;86.83
29461;BME280;16428;47.836;35.106;2023-04-08T12:16:44;101569.66;;;18.93;82.60
29461;BME280;16428;47.836;35.106;2023-04-08T12:19:13;101579.59;;;19.52;79.49
29461;BME280;16428;47.836;35.106;2023-04-08T12:21:41;101570.94;;;20.06;76.38
29461;BME280;16428;47.836;35.106;2023-04-08T12:24:09;101578.09;;;20.07;75.45
29461;BME280;16428;47.836;35.106;2023-04-08T12:26:38;101575.94;;;19.78;76.02
29461;BME280;16428;47.836;35.106;2023-04-08T12:29:06;101579.50;;;19.72;79.45
29461;BME280;16428;47.836;35.106;2023-04-08T12:31:36;101570.41;;;19.33;78.04
29461;BME280;16428;47.836;35.106;2023-04-08T12:34:06;101573.81;;;19.09;76.48
29461;BME280;16428;47.836;35.106;2023-04-08T12:36:34;101565.44;;;19.04;78.07
29461;BME280;16428;47.836;35.106;2023-04-08T12:39:05;101562.09;;;19.08;72.05
29461;BME280;16428;47.836;35.106;2023-04-08T12:41:35;101553.63;;;19.49;75.72
29461;BME280;16428;47.836;35.106;2023-04-08T12:44:03;101559.94;;;19.30;74.73
29461;BME280;16428;47.836;35.106;2023-04-08T12:46:31;101557.81;;;19.32;74.24
29461;BME280;16428;47.836;35.106;2023-04-08T12:48:58;101564.47;;;19.56;76.12
29461;BME280;16428;47.836;35.106;2023-04-08T12:51:37;101561.38;;;19.97;70.22